Huvudsida
METAR-TAF:

METAR-TAF

Flygplatser :

Jeddah, Saudiarabien

latitud: 21-42N, longitud: 039-11E, höjd: 15 m

Aktuellt väderrapport

Denna rapport gjordes för 40 minuter sedan, klockan 22:00 UTC
Vind 5 kt från nord/nordost
Temperatur 28°C
Fuktighet 66%
Tryck 1011 hPa
Sikt 10 km eller mer
Få moln på en höjd av 4000 ft

METAR: OEJN 152200Z 03005KT 9999 FEW040 28/21 Q1011 NOSIG

Tid: 01:40 (22:40 UTC)

Väderprognos

Denna rapport gjordes för 5 timmar och 40 minuter sedan, klockan 17:00 UTC
Prognos gäller från 15 kl. 18 UTC till 16 kl. 24 UTC
Vind 10 kt från nordost
Sikt: 6000 m
Spridda moln på en höjd av 4000 ft
Temporärt
från 15 kl. 18 UTC till 15 kl. 23 UTC
Sikt: 4000 m
Få moln på en höjd av 3000 ft, Cumulonimbus.
högt damm drev, åska
Blir
från 16 kl. 06 UTC till 16 kl. 08 UTC
Vind 8 kt från nord/nordväst

TAF: OEJN 151700Z 1518/1624 04010KT 6000 SCT040 TEMPO 1518/1523 4000 BLDU TS FEW030CB BECMG 1606/1608 33008KT

Aktuella väderrapporter och prognoser från 4000 flygplatser (METAR- och TAF-rapporter).

De tillgängliga stationerna syns som gula och röda prickar på kartan.

För musen över prickarna för att se namnen på stationerna.

Klicka sedan för att få väderrapporter och prognoser.

För att ändra kartan: Klicka på de gröna knapparna med ett svart kors på för att zooma in; den gröna knappen med ett streck på för att zooma ut; eller på de gröna pilarna för angränsande kartor.


METAR-TAF: